Baker, NV

1:18 AM PDT on July 28, 2014 (GMT -0700)
Hwy 488 (KNVBAKER2) Elev 6437 ft | 39.01 °N, 114.20 °W | Change Station

Current weather conditions updated 11 minutes ago

Clear
Clear
68.9 °F
Feels Like 68.9 °F
N
3.7
Wind Variable Wind from WSW

Today is forecast to be Much Cooler than yesterday. Thunderstorms.

Today
High -- | Low -- °F
--% Chance of Precip.
Yesterday
High -- | Low -- °F
Precip. -- in
5:33 AM 7:51 PM
New Moon, 2% visible
Pressure 30.00 in
Visibility 10.0 miles
Clouds Clear
Dew Point 49 °F
Humidity 49%
Rainfall 0.00 in
Snow Depth Not available.
UV 0 out of 12
Pollen 6.80 out of 12
Air Quality Not available.
Flu Activity Not available.
METAR KELY 280753Z AUTO 25007KT 10SM CLR 18/10 A3034 RMK AO2 SLP157 T01780100 403330128

More Conditions Fewer Conditions

Pressure 30.00 in
Visibility 10.0 miles
Clouds Clear
Dew Point 49 °F
Humidity 49%
Rainfall 0.00 in
Snow Depth Not available.
UV 0 out of 12
Pollen 6.80 out of 12
Air Quality Not available.
Flu Activity Not available.
METAR KELY 280753Z AUTO 25007KT 10SM CLR 18/10 A3034 RMK AO2 SLP157 T01780100 403330128

More Conditions Fewer Conditions

10-Day Weather Forecast

Almanac

Astronomy

Jul. 28, 2014 Rise Set
Actual Time 5:33 AM PDT 7:51 PM PDT
Civil Twilight 5:03 AM PDT 8:21 PM PDT
Nautical Twilight 4:26 AM PDT 8:58 PM PDT
Astronomical Twilight 3:45 AM PDT 9:39 PM PDT
Moon 7:17 AM PDT 8:37 PM PDT
Length of Visible Light 15h 17m
Length of Day
14h 17m
Tomorrow will be 1m 48s shorter.
New Moon, 2% of the Moon is Illuminated
Today
New Moon
Aug 3
First Quarter
Aug 10
Full
Aug 17
Last Quarter
Aug 25
New

Today's Extremes

State Highs State Lows

Community

WunderPhotos

Upload Photos

1,738,293 photos uploaded!

Nearby

Snow Depth

Station Depth Elevation
Diamond Peak 1 in 8000 ft
Corral Canyon 0 in 8500 ft
Green Mountain 0 in 8000 ft
Dorsey Basin 0 in 8100 ft
Lewis Peak 0 in 7400 ft

Earthquake Activity

City Distance Mag. Time & Date
No recent earthquake activity has been reported nearby.
Minimum magnitude displayed is 2.5.

Coastal Water Temperatures

Place Temperature
No Stations Reporting

Nearby Weather Stations

Station Location Temp. Heat Index Dew Point Humidity Wind Precip. Elev Updated Type
Hwy 488, Baker, NV 68.9 °F - 49 °F 49% WSW  at  3.7 mph - / hr 6437 ft 1:07 AM PDT Normal
MesoWest Snake Valley , Baker, NV 71 °F 77 °F 51 °F 50% West  at  6 mph 0.00 in / hr 5180 ft 11:50 PM PDT MADIS
RAWS MATHER NV, Baker, NV 57 °F - 41 °F 55% NNE  at  6 mph 0.00 in / hr 9268 ft 12:29 AM PDT MADIS

Show More Stations Show Fewer Stations